sensor_id;sensor_type;location;lat;lon;timestamp;pressure;altitude;pressure_sealevel;temperature;humidity
8061;BME280;4073;42.626;25.386;2022-10-17T00:00:50;98551.34;;;6.66;86.12
8061;BME280;4073;42.626;25.386;2022-10-17T00:03:15;98553.59;;;6.62;85.09
8061;BME280;4073;42.626;25.386;2022-10-17T00:05:43;98555.44;;;6.62;84.28
8061;BME280;4073;42.626;25.386;2022-10-17T00:08:10;98559.00;;;6.49;84.44
8061;BME280;4073;42.626;25.386;2022-10-17T00:10:37;98546.56;;;6.43;84.82
8061;BME280;4073;42.626;25.386;2022-10-17T00:13:03;98547.59;;;6.36;86.35
8061;BME280;4073;42.626;25.386;2022-10-17T00:15:28;98563.53;;;6.42;86.74
8061;BME280;4073;42.626;25.386;2022-10-17T00:17:54;98576.63;;;6.37;86.58
8061;BME280;4073;42.626;25.386;2022-10-17T00:20:19;98574.19;;;6.29;87.37
8061;BME280;4073;42.626;25.386;2022-10-17T00:22:45;98570.56;;;6.24;87.18
8061;BME280;4073;42.626;25.386;2022-10-17T00:25:11;98570.78;;;6.16;87.85
8061;BME280;4073;42.626;25.386;2022-10-17T00:27:37;98567.53;;;6.14;87.95
8061;BME280;4073;42.626;25.386;2022-10-17T00:30:05;98566.13;;;6.05;87.98
8061;BME280;4073;42.626;25.386;2022-10-17T00:32:31;98566.94;;;6.05;88.92
8061;BME280;4073;42.626;25.386;2022-10-17T00:34:57;98565.28;;;6.11;89.31
8061;BME280;4073;42.626;25.386;2022-10-17T00:37:22;98568.81;;;5.98;89.36
8061;BME280;4073;42.626;25.386;2022-10-17T00:39:48;98577.38;;;5.87;89.28
8061;BME280;4073;42.626;25.386;2022-10-17T00:42:14;98550.25;;;5.72;89.51
8061;BME280;4073;42.626;25.386;2022-10-17T00:47:07;98569.81;;;5.78;90.62
8061;BME280;4073;42.626;25.386;2022-10-17T00:49:37;98558.81;;;5.68;91.85
8061;BME280;4073;42.626;25.386;2022-10-17T00:52:11;98556.00;;;5.50;93.32
8061;BME280;4073;42.626;25.386;2022-10-17T00:54:44;98568.00;;;5.59;94.23
8061;BME280;4073;42.626;25.386;2022-10-17T00:57:10;98570.66;;;5.65;93.99
8061;BME280;4073;42.626;25.386;2022-10-17T00:59:38;98562.72;;;5.65;92.81
8061;BME280;4073;42.626;25.386;2022-10-17T01:02:09;98573.50;;;5.70;92.51
8061;BME280;4073;42.626;25.386;2022-10-17T01:04:41;98582.09;;;5.72;92.18
8061;BME280;4073;42.626;25.386;2022-10-17T01:07:07;98562.13;;;5.57;92.07
8061;BME280;4073;42.626;25.386;2022-10-17T01:09:33;98579.66;;;5.64;91.73
8061;BME280;4073;42.626;25.386;2022-10-17T01:12:17;98576.56;;;5.67;92.33
8061;BME280;4073;42.626;25.386;2022-10-17T01:20:28;98567.00;;;5.73;91.84
8061;BME280;4073;42.626;25.386;2022-10-17T01:31:17;98574.56;;;5.82;95.57
8061;BME280;4073;42.626;25.386;2022-10-17T01:33:49;98568.00;;;5.91;95.91
8061;BME280;4073;42.626;25.386;2022-10-17T01:36:40;98573.94;;;5.87;95.99
8061;BME280;4073;42.626;25.386;2022-10-17T01:39:22;98563.09;;;5.95;94.32
8061;BME280;4073;42.626;25.386;2022-10-17T01:42:01;98573.09;;;5.86;95.28
8061;BME280;4073;42.626;25.386;2022-10-17T01:44:40;98570.66;;;5.85;94.25
8061;BME280;4073;42.626;25.386;2022-10-17T01:47:12;98568.19;;;5.70;94.39
8061;BME280;4073;42.626;25.386;2022-10-17T01:49:44;98555.38;;;5.61;97.74
8061;BME280;4073;42.626;25.386;2022-10-17T01:52:36;98570.47;;;5.54;98.94
8061;BME280;4073;42.626;25.386;2022-10-17T01:55:39;98561.69;;;5.60;98.75
8061;BME280;4073;42.626;25.386;2022-10-17T01:58:09;98563.13;;;5.62;97.96
8061;BME280;4073;42.626;25.386;2022-10-17T02:00:38;98572.50;;;5.65;97.83
8061;BME280;4073;42.626;25.386;2022-10-17T02:03:08;98577.81;;;5.71;97.70
8061;BME280;4073;42.626;25.386;2022-10-17T02:05:40;98564.53;;;5.65;98.37
8061;BME280;4073;42.626;25.386;2022-10-17T02:08:07;98570.25;;;5.68;98.57
8061;BME280;4073;42.626;25.386;2022-10-17T02:13:18;98579.44;;;5.72;98.34
8061;BME280;4073;42.626;25.386;2022-10-17T02:16:21;98586.97;;;5.75;99.31
8061;BME280;4073;42.626;25.386;2022-10-17T02:24:33;98577.03;;;5.51;99.02
8061;BME280;4073;42.626;25.386;2022-10-17T02:30:02;98585.19;;;5.30;96.36
8061;BME280;4073;42.626;25.386;2022-10-17T02:32:42;98583.34;;;5.11;97.26
8061;BME280;4073;42.626;25.386;2022-10-17T02:35:12;98578.84;;;5.11;96.76
8061;BME280;4073;42.626;25.386;2022-10-17T02:37:41;98583.34;;;5.11;97.66
8061;BME280;4073;42.626;25.386;2022-10-17T02:40:09;98582.91;;;5.07;99.30
8061;BME280;4073;42.626;25.386;2022-10-17T02:42:37;98585.38;;;5.02;99.95
8061;BME280;4073;42.626;25.386;2022-10-17T02:45:04;98575.16;;;5.06;100.00
8061;BME280;4073;42.626;25.386;2022-10-17T02:47:49;98585.56;;;5.01;100.00
8061;BME280;4073;42.626;25.386;2022-10-17T02:50:27;98590.25;;;5.12;100.00
8061;BME280;4073;42.626;25.386;2022-10-17T02:53:01;98599.25;;;5.24;100.00
8061;BME280;4073;42.626;25.386;2022-10-17T02:55:35;98601.72;;;5.25;100.00
8061;BME280;4073;42.626;25.386;2022-10-17T02:58:06;98604.78;;;5.35;100.00
8061;BME280;4073;42.626;25.386;2022-10-17T03:00:33;98612.50;;;5.43;100.00
8061;BME280;4073;42.626;25.386;2022-10-17T03:02:59;98601.69;;;5.52;100.00
8061;BME280;4073;42.626;25.386;2022-10-17T03:05:27;98593.53;;;5.53;100.00
8061;BME280;4073;42.626;25.386;2022-10-17T03:07:54;98584.56;;;5.61;100.00
8061;BME280;4073;42.626;25.386;2022-10-17T03:10:20;98584.75;;;5.59;99.80
8061;BME280;4073;42.626;25.386;2022-10-17T03:12:46;98578.22;;;5.62;100.00
8061;BME280;4073;42.626;25.386;2022-10-17T03:15:11;98594.72;;;5.70;100.00
8061;BME280;4073;42.626;25.386;2022-10-17T03:17:37;98598.84;;;5.73;99.52
8061;BME280;4073;42.626;25.386;2022-10-17T03:20:04;98579.66;;;5.64;98.18
8061;BME280;4073;42.626;25.386;2022-10-17T03:22:30;98588.44;;;5.58;98.31
8061;BME280;4073;42.626;25.386;2022-10-17T03:24:56;98592.72;;;5.46;98.84
8061;BME280;4073;42.626;25.386;2022-10-17T03:27:21;98591.09;;;5.25;99.16
8061;BME280;4073;42.626;25.386;2022-10-17T03:29:47;98593.97;;;5.24;100.00
8061;BME280;4073;42.626;25.386;2022-10-17T03:32:12;98592.72;;;5.33;100.00
8061;BME280;4073;42.626;25.386;2022-10-17T03:34:38;98599.84;;;5.26;100.00
8061;BME280;4073;42.626;25.386;2022-10-17T03:37:03;98579.47;;;5.20;100.00
8061;BME280;4073;42.626;25.386;2022-10-17T03:39:29;98560.31;;;5.11;100.00
8061;BME280;4073;42.626;25.386;2022-10-17T03:41:54;98567.00;;;5.01;100.00
8061;BME280;4073;42.626;25.386;2022-10-17T03:44:20;98589.44;;;5.05;100.00
8061;BME280;4073;42.626;25.386;2022-10-17T03:46:45;98589.63;;;5.03;100.00
8061;BME280;4073;42.626;25.386;2022-10-17T03:49:11;98591.28;;;5.11;100.00
8061;BME280;4073;42.626;25.386;2022-10-17T03:51:36;98596.81;;;5.22;100.00
8061;BME280;4073;42.626;25.386;2022-10-17T03:54:02;98593.56;;;5.27;100.00
8061;BME280;4073;42.626;25.386;2022-10-17T03:56:28;98600.06;;;5.24;100.00
8061;BME280;4073;42.626;25.386;2022-10-17T03:58:54;98604.56;;;5.30;100.00
8061;BME280;4073;42.626;25.386;2022-10-17T04:01:20;98607.22;;;5.37;100.00
8061;BME280;4073;42.626;25.386;2022-10-17T04:03:50;98590.66;;;5.55;100.00
8061;BME280;4073;42.626;25.386;2022-10-17T04:06:16;98590.03;;;5.66;98.68
8061;BME280;4073;42.626;25.386;2022-10-17T04:08:41;98600.25;;;5.75;99.15
8061;BME280;4073;42.626;25.386;2022-10-17T04:11:07;98591.91;;;5.65;98.46
8061;BME280;4073;42.626;25.386;2022-10-17T04:13:34;98607.81;;;5.39;97.04
8061;BME280;4073;42.626;25.386;2022-10-17T04:16:02;98608.22;;;5.36;99.21
8061;BME280;4073;42.626;25.386;2022-10-17T04:18:29;98602.91;;;5.36;99.84
8061;BME280;4073;42.626;25.386;2022-10-17T04:20:55;98604.16;;;5.33;99.85
8061;BME280;4073;42.626;25.386;2022-10-17T04:23:21;98605.19;;;5.32;100.00
8061;BME280;4073;42.626;25.386;2022-10-17T04:25:46;98610.66;;;5.37;99.50
8061;BME280;4073;42.626;25.386;2022-10-17T04:28:12;98613.53;;;5.43;100.00
8061;BME280;4073;42.626;25.386;2022-10-17T04:30:37;98598.03;;;5.46;99.99
8061;BME280;4073;42.626;25.386;2022-10-17T04:33:03;98613.09;;;5.59;99.18
8061;BME280;4073;42.626;25.386;2022-10-17T04:35:29;98619.66;;;5.56;98.65
8061;BME280;4073;42.626;25.386;2022-10-17T04:37:54;98617.41;;;5.53;99.92
8061;BME280;4073;42.626;25.386;2022-10-17T04:40:20;98625.97;;;5.55;100.00
8061;BME280;4073;42.626;25.386;2022-10-17T04:42:45;98637.00;;;5.65;98.21
8061;BME280;4073;42.626;25.386;2022-10-17T04:45:11;98635.59;;;5.63;98.62
8061;BME280;4073;42.626;25.386;2022-10-17T04:47:37;98640.06;;;5.75;99.20
8061;BME280;4073;42.626;25.386;2022-10-17T04:50:03;98630.47;;;5.94;99.17
8061;BME280;4073;42.626;25.386;2022-10-17T04:52:29;98624.56;;;5.98;96.50
8061;BME280;4073;42.626;25.386;2022-10-17T04:54:56;98618.81;;;5.95;97.39
8061;BME280;4073;42.626;25.386;2022-10-17T04:57:21;98644.91;;;6.17;97.76
8061;BME280;4073;42.626;25.386;2022-10-17T04:59:47;98654.56;;;6.69;95.31
8061;BME280;4073;42.626;25.386;2022-10-17T05:02:12;98656.41;;;7.68;90.62
8061;BME280;4073;42.626;25.386;2022-10-17T05:04:38;98661.28;;;8.92;83.71
8061;BME280;4073;42.626;25.386;2022-10-17T05:07:03;98663.72;;;9.76;78.00
8061;BME280;4073;42.626;25.386;2022-10-17T05:09:29;98668.63;;;10.48;72.44
8061;BME280;4073;42.626;25.386;2022-10-17T05:11:54;98680.88;;;11.79;67.07
8061;BME280;4073;42.626;25.386;2022-10-17T05:14:20;98679.72;;;12.63;63.23
8061;BME280;4073;42.626;25.386;2022-10-17T05:16:46;98682.50;;;13.38;59.74
8061;BME280;4073;42.626;25.386;2022-10-17T05:19:11;98691.84;;;14.20;54.58
8061;BME280;4073;42.626;25.386;2022-10-17T05:21:37;98693.28;;;15.30;52.26
8061;BME280;4073;42.626;25.386;2022-10-17T05:24:07;98690.94;;;15.49;48.47
8061;BME280;4073;42.626;25.386;2022-10-17T05:26:33;98695.34;;;15.90;46.05
8061;BME280;4073;42.626;25.386;2022-10-17T05:29:00;98697.50;;;16.48;46.36
8061;BME280;4073;42.626;25.386;2022-10-17T05:31:27;98704.63;;;17.03;44.50
8061;BME280;4073;42.626;25.386;2022-10-17T05:33:53;98694.72;;;17.47;43.61
8061;BME280;4073;42.626;25.386;2022-10-17T05:36:19;98705.31;;;17.33;43.52
8061;BME280;4073;42.626;25.386;2022-10-17T05:38:48;98710.56;;;18.41;40.11
8061;BME280;4073;42.626;25.386;2022-10-17T05:41:15;98710.53;;;18.98;38.32
8061;BME280;4073;42.626;25.386;2022-10-17T05:43:40;98715.19;;;19.39;38.46
8061;BME280;4073;42.626;25.386;2022-10-17T05:46:06;98715.13;;;19.81;35.95
8061;BME280;4073;42.626;25.386;2022-10-17T05:48:32;98724.13;;;20.32;35.91
8061;BME280;4073;42.626;25.386;2022-10-17T05:51:05;98731.16;;;20.98;33.65
8061;BME280;4073;42.626;25.386;2022-10-17T05:53:34;98738.69;;;20.87;35.72
8061;BME280;4073;42.626;25.386;2022-10-17T05:56:01;98736.13;;;20.77;35.21
8061;BME280;4073;42.626;25.386;2022-10-17T05:58:27;98743.50;;;22.20;32.26
8061;BME280;4073;42.626;25.386;2022-10-17T06:01:01;98744.63;;;22.63;31.39
8061;BME280;4073;42.626;25.386;2022-10-17T06:03:28;98753.53;;;23.47;29.86
8061;BME280;4073;42.626;25.386;2022-10-17T06:05:53;98754.06;;;23.66;29.38
8061;BME280;4073;42.626;25.386;2022-10-17T06:08:19;98744.94;;;23.79;29.32
8061;BME280;4073;42.626;25.386;2022-10-17T06:10:48;98753.19;;;24.13;28.50
8061;BME280;4073;42.626;25.386;2022-10-17T06:13:15;98754.47;;;24.58;28.76
8061;BME280;4073;42.626;25.386;2022-10-17T06:15:42;98758.97;;;24.29;29.95
8061;BME280;4073;42.626;25.386;2022-10-17T06:18:07;98764.75;;;25.25;28.40
8061;BME280;4073;42.626;25.386;2022-10-17T06:20:33;98767.34;;;25.88;27.33
8061;BME280;4073;42.626;25.386;2022-10-17T06:22:58;98766.19;;;24.76;28.00
8061;BME280;4073;42.626;25.386;2022-10-17T06:25:24;98763.78;;;23.98;29.58
8061;BME280;4073;42.626;25.386;2022-10-17T06:27:49;98766.03;;;24.55;29.28
8061;BME280;4073;42.626;25.386;2022-10-17T06:30:15;98770.38;;;25.28;28.29
8061;BME280;4073;42.626;25.386;2022-10-17T06:32:40;98773.31;;;25.61;28.20
8061;BME280;4073;42.626;25.386;2022-10-17T06:35:06;98771.31;;;26.93;26.01
8061;BME280;4073;42.626;25.386;2022-10-17T06:37:32;98757.56;;;28.65;24.01
8061;BME280;4073;42.626;25.386;2022-10-17T06:39:58;98768.34;;;28.18;24.00
8061;BME280;4073;42.626;25.386;2022-10-17T06:42:24;98767.72;;;28.37;23.87
8061;BME280;4073;42.626;25.386;2022-10-17T06:44:49;98769.06;;;28.98;23.12
8061;BME280;4073;42.626;25.386;2022-10-17T06:47:15;98779.53;;;29.20;22.47
8061;BME280;4073;42.626;25.386;2022-10-17T06:49:40;98780.00;;;29.37;21.55
8061;BME280;4073;42.626;25.386;2022-10-17T06:52:06;98782.03;;;29.56;21.85
8061;BME280;4073;42.626;25.386;2022-10-17T06:54:31;98767.22;;;29.95;22.40
8061;BME280;4073;42.626;25.386;2022-10-17T06:56:56;98775.38;;;30.07;21.53
8061;BME280;4073;42.626;25.386;2022-10-17T06:59:22;98775.53;;;30.14;20.93
8061;BME280;4073;42.626;25.386;2022-10-17T07:01:47;98781.63;;;29.57;21.29
8061;BME280;4073;42.626;25.386;2022-10-17T07:04:13;98780.56;;;29.93;20.43
8061;BME280;4073;42.626;25.386;2022-10-17T07:06:38;98785.88;;;30.17;19.64
8061;BME280;4073;42.626;25.386;2022-10-17T07:09:04;98777.88;;;30.50;20.00
8061;BME280;4073;42.626;25.386;2022-10-17T07:11:32;98781.00;;;29.95;20.18
8061;BME280;4073;42.626;25.386;2022-10-17T07:13:59;98786.06;;;29.93;20.19
8061;BME280;4073;42.626;25.386;2022-10-17T07:16:25;98787.88;;;29.86;19.64
8061;BME280;4073;42.626;25.386;2022-10-17T07:18:51;98791.09;;;29.72;18.92
8061;BME280;4073;42.626;25.386;2022-10-17T07:21:17;98790.09;;;29.96;18.65
8061;BME280;4073;42.626;25.386;2022-10-17T07:23:42;98798.03;;;28.64;18.83
8061;BME280;4073;42.626;25.386;2022-10-17T07:26:10;98797.91;;;28.33;20.70
8061;BME280;4073;42.626;25.386;2022-10-17T07:28:38;98794.81;;;28.62;19.61
8061;BME280;4073;42.626;25.386;2022-10-17T07:31:09;98805.50;;;29.34;19.40
8061;BME280;4073;42.626;25.386;2022-10-17T07:33:35;98805.84;;;29.17;19.56
8061;BME280;4073;42.626;25.386;2022-10-17T07:36:01;98802.38;;;28.93;18.96
8061;BME280;4073;42.626;25.386;2022-10-17T07:38:27;98802.97;;;29.92;18.81
8061;BME280;4073;42.626;25.386;2022-10-17T07:40:57;98806.84;;;29.56;18.95
8061;BME280;4073;42.626;25.386;2022-10-17T07:43:24;98810.44;;;29.13;19.28
8061;BME280;4073;42.626;25.386;2022-10-17T07:45:50;98813.34;;;29.05;19.47
8061;BME280;4073;42.626;25.386;2022-10-17T07:48:16;98802.38;;;28.93;19.52
8061;BME280;4073;42.626;25.386;2022-10-17T07:50:42;98806.66;;;29.80;19.00
8061;BME280;4073;42.626;25.386;2022-10-17T07:53:07;98806.81;;;29.40;18.96
8061;BME280;4073;42.626;25.386;2022-10-17T07:55:33;98803.63;;;29.23;18.94
8061;BME280;4073;42.626;25.386;2022-10-17T07:57:58;98803.38;;;28.73;18.39
8061;BME280;4073;42.626;25.386;2022-10-17T08:00:27;98807.59;;;29.88;17.84
8061;BME280;4073;42.626;25.386;2022-10-17T08:02:52;98809.03;;;29.97;17.33
8061;BME280;4073;42.626;25.386;2022-10-17T08:05:18;98798.13;;;29.38;18.60
8061;BME280;4073;42.626;25.386;2022-10-17T08:07:43;98795.47;;;30.61;17.47
8061;BME280;4073;42.626;25.386;2022-10-17T08:10:11;98792.63;;;31.37;17.03
8061;BME280;4073;42.626;25.386;2022-10-17T08:12:37;98801.28;;;31.36;16.85
8061;BME280;4073;42.626;25.386;2022-10-17T08:15:04;98792.75;;;31.44;16.45
8061;BME280;4073;42.626;25.386;2022-10-17T08:17:30;98797.59;;;31.28;17.02
8061;BME280;4073;42.626;25.386;2022-10-17T08:19:55;98792.88;;;31.29;16.76
8061;BME280;4073;42.626;25.386;2022-10-17T08:22:20;98794.09;;;32.03;16.36
8061;BME280;4073;42.626;25.386;2022-10-17T08:24:46;98793.63;;;31.97;16.10
8061;BME280;4073;42.626;25.386;2022-10-17T08:27:12;98790.78;;;32.20;15.80
8061;BME280;4073;42.626;25.386;2022-10-17T08:29:38;98785.91;;;32.10;16.56
8061;BME280;4073;42.626;25.386;2022-10-17T08:32:05;98792.31;;;31.42;16.05
8061;BME280;4073;42.626;25.386;2022-10-17T08:34:31;98787.66;;;32.21;15.45
8061;BME280;4073;42.626;25.386;2022-10-17T08:36:57;98783.38;;;32.86;15.11
8061;BME280;4073;42.626;25.386;2022-10-17T08:39:22;98794.84;;;33.65;14.45
8061;BME280;4073;42.626;25.386;2022-10-17T08:47:01;98787.69;;;31.72;16.19
8061;BME280;4073;42.626;25.386;2022-10-17T08:49:48;98790.59;;;30.17;18.73
8061;BME280;4073;42.626;25.386;2022-10-17T08:57:55;98797.00;;;30.40;19.22
8061;BME280;4073;42.626;25.386;2022-10-17T09:00:21;98783.63;;;30.42;18.53
8061;BME280;4073;42.626;25.386;2022-10-17T09:03:09;98785.59;;;30.60;19.30
8061;BME280;4073;42.626;25.386;2022-10-17T09:05:43;98788.59;;;30.33;19.69
8061;BME280;4073;42.626;25.386;2022-10-17T09:08:39;98795.28;;;29.66;20.20
8061;BME280;4073;42.626;25.386;2022-10-17T09:13:57;98784.28;;;28.92;20.49
8061;BME280;4073;42.626;25.386;2022-10-17T09:19:38;98783.00;;;30.14;19.93
8061;BME280;4073;42.626;25.386;2022-10-17T09:22:08;98780.34;;;30.02;20.17
8061;BME280;4073;42.626;25.386;2022-10-17T09:24:45;98771.97;;;29.63;20.25
8061;BME280;4073;42.626;25.386;2022-10-17T09:27:51;98772.97;;;29.40;20.58
8061;BME280;4073;42.626;25.386;2022-10-17T09:30:33;98769.81;;;28.67;21.42
8061;BME280;4073;42.626;25.386;2022-10-17T09:32:59;98763.97;;;28.69;22.03
8061;BME280;4073;42.626;25.386;2022-10-17T09:35:26;98766.56;;;28.50;22.06
8061;BME280;4073;42.626;25.386;2022-10-17T09:37:53;98762.78;;;27.79;22.81
8061;BME280;4073;42.626;25.386;2022-10-17T09:40:26;98761.88;;;27.99;22.66
8061;BME280;4073;42.626;25.386;2022-10-17T09:42:53;98759.13;;;27.99;22.82
8061;BME280;4073;42.626;25.386;2022-10-17T09:45:20;98757.75;;;28.05;22.90
8061;BME280;4073;42.626;25.386;2022-10-17T09:50:30;98756.88;;;26.96;23.30
8061;BME280;4073;42.626;25.386;2022-10-17T09:53:29;98747.44;;;27.05;22.90
8061;BME280;4073;42.626;25.386;2022-10-17T09:56:00;98750.22;;;27.29;21.92
8061;BME280;4073;42.626;25.386;2022-10-17T09:58:47;98751.16;;;26.89;21.79
8061;BME280;4073;42.626;25.386;2022-10-17T10:01:22;98742.16;;;26.35;22.17
8061;BME280;4073;42.626;25.386;2022-10-17T10:04:08;98743.91;;;26.19;22.27
8061;BME280;4073;42.626;25.386;2022-10-17T10:06:34;98740.56;;;26.14;22.25
8061;BME280;4073;42.626;25.386;2022-10-17T10:09:00;98743.81;;;26.28;21.84
8061;BME280;4073;42.626;25.386;2022-10-17T10:11:50;98740.66;;;26.58;22.11
8061;BME280;4073;42.626;25.386;2022-10-17T10:16:46;98732.19;;;26.96;21.75
8061;BME280;4073;42.626;25.386;2022-10-17T10:19:48;98731.16;;;27.00;22.07
8061;BME280;4073;42.626;25.386;2022-10-17T10:22:15;98734.38;;;27.02;21.91
8061;BME280;4073;42.626;25.386;2022-10-17T10:24:41;98724.50;;;27.34;22.08
8061;BME280;4073;42.626;25.386;2022-10-17T10:27:12;98724.25;;;27.39;21.77
8061;BME280;4073;42.626;25.386;2022-10-17T10:29:42;98725.94;;;27.68;21.03
8061;BME280;4073;42.626;25.386;2022-10-17T10:32:22;98722.28;;;27.64;21.25
8061;BME280;4073;42.626;25.386;2022-10-17T10:34:52;98710.13;;;27.77;21.12
8061;BME280;4073;42.626;25.386;2022-10-17T10:37:20;98712.78;;;28.25;20.87
8061;BME280;4073;42.626;25.386;2022-10-17T10:39:49;98706.88;;;28.11;20.77
8061;BME280;4073;42.626;25.386;2022-10-17T10:42:28;98709.56;;;28.78;20.40
8061;BME280;4073;42.626;25.386;2022-10-17T10:45:02;98702.44;;;28.92;19.83
8061;BME280;4073;42.626;25.386;2022-10-17T10:47:29;98696.88;;;28.46;20.26
8061;BME280;4073;42.626;25.386;2022-10-17T10:50:15;98700.97;;;27.85;20.84
8061;BME280;4073;42.626;25.386;2022-10-17T10:52:46;98696.53;;;27.20;21.80
8061;BME280;4073;42.626;25.386;2022-10-17T10:57:43;98706.47;;;26.23;22.33
8061;BME280;4073;42.626;25.386;2022-10-17T11:00:15;98696.06;;;25.96;22.66
8061;BME280;4073;42.626;25.386;2022-10-17T11:05:59;98690.16;;;25.36;23.64
8061;BME280;4073;42.626;25.386;2022-10-17T11:13:30;98675.16;;;24.58;24.52
8061;BME280;4073;42.626;25.386;2022-10-17T11:26:45;98671.81;;;24.36;24.93
8061;BME280;4073;42.626;25.386;2022-10-17T11:29:13;98674.22;;;24.37;24.67
8061;BME280;4073;42.626;25.386;2022-10-17T11:31:43;98663.78;;;24.31;24.85
8061;BME280;4073;42.626;25.386;2022-10-17T11:34:19;98659.56;;;24.42;24.17
8061;BME280;4073;42.626;25.386;2022-10-17T11:36:51;98657.13;;;24.66;24.25
8061;BME280;4073;42.626;25.386;2022-10-17T11:39:21;98662.13;;;24.55;24.39
8061;BME280;4073;42.626;25.386;2022-10-17T11:42:01;98660.19;;;24.64;24.16
8061;BME280;4073;42.626;25.386;2022-10-17T11:44:34;98649.47;;;24.34;24.29
8061;BME280;4073;42.626;25.386;2022-10-17T11:49:58;98647.41;;;24.31;24.38
8061;BME280;4073;42.626;25.386;2022-10-17T11:52:37;98641.72;;;24.44;24.61
8061;BME280;4073;42.626;25.386;2022-10-17T11:55:25;98641.63;;;24.15;24.83
8061;BME280;4073;42.626;25.386;2022-10-17T12:11:50;98634.31;;;24.53;24.57
8061;BME280;4073;42.626;25.386;2022-10-17T12:14:38;98641.22;;;24.51;24.87
8061;BME280;4073;42.626;25.386;2022-10-17T12:25:36;98629.59;;;24.08;25.32
8061;BME280;4073;42.626;25.386;2022-10-17T12:28:15;98632.31;;;24.16;24.45
8061;BME280;4073;42.626;25.386;2022-10-17T12:38:48;98634.56;;;23.89;24.84
8061;BME280;4073;42.626;25.386;2022-10-17T12:41:14;98631.84;;;23.89;24.68
8061;BME280;4073;42.626;25.386;2022-10-17T12:43:44;98641.81;;;23.93;25.09
8061;BME280;4073;42.626;25.386;2022-10-17T12:46:10;98628.81;;;23.99;24.82
8061;BME280;4073;42.626;25.386;2022-10-17T12:51:03;98632.78;;;23.93;25.45
8061;BME280;4073;42.626;25.386;2022-10-17T12:53:46;98637.78;;;23.99;25.49
8061;BME280;4073;42.626;25.386;2022-10-17T12:56:28;98639.38;;;23.83;25.59
8061;BME280;4073;42.626;25.386;2022-10-17T12:58:56;98639.38;;;23.75;25.43
8061;BME280;4073;42.626;25.386;2022-10-17T13:01:30;98631.03;;;23.71;25.63
8061;BME280;4073;42.626;25.386;2022-10-17T13:03:57;98626.53;;;23.67;25.51
8061;BME280;4073;42.626;25.386;2022-10-17T13:06:31;98618.50;;;23.36;25.68
8061;BME280;4073;42.626;25.386;2022-10-17T13:09:12;98629.75;;;23.43;25.95
8061;BME280;4073;42.626;25.386;2022-10-17T13:11:41;98622.66;;;23.34;25.87
8061;BME280;4073;42.626;25.386;2022-10-17T13:14:15;98629.75;;;23.52;26.12
8061;BME280;4073;42.626;25.386;2022-10-17T13:17:04;98628.31;;;23.71;26.16
8061;BME280;4073;42.626;25.386;2022-10-17T13:19:43;98622.66;;;23.51;26.56
8061;BME280;4073;42.626;25.386;2022-10-17T13:22:21;98635.03;;;23.57;26.50
8061;BME280;4073;42.626;25.386;2022-10-17T13:24:49;98636.00;;;23.69;26.65
8061;BME280;4073;42.626;25.386;2022-10-17T13:27:29;98627.66;;;23.83;27.22
8061;BME280;4073;42.626;25.386;2022-10-17T13:29:57;98629.59;;;23.74;27.61
8061;BME280;4073;42.626;25.386;2022-10-17T13:32:24;98625.72;;;23.66;27.91
8061;BME280;4073;42.626;25.386;2022-10-17T13:35:10;98624.28;;;23.43;28.07
8061;BME280;4073;42.626;25.386;2022-10-17T13:37:38;98626.69;;;23.45;28.46
8061;BME280;4073;42.626;25.386;2022-10-17T13:40:04;98626.69;;;23.28;28.75
8061;BME280;4073;42.626;25.386;2022-10-17T13:42:37;98631.03;;;23.46;28.39
8061;BME280;4073;42.626;25.386;2022-10-17T13:45:29;98629.91;;;23.47;28.03
8061;BME280;4073;42.626;25.386;2022-10-17T13:47:55;98634.06;;;23.44;28.03
8061;BME280;4073;42.626;25.386;2022-10-17T13:50:27;98627.00;;;23.35;27.80
8061;BME280;4073;42.626;25.386;2022-10-17T13:53:29;98631.00;;;23.37;27.56
8061;BME280;4073;42.626;25.386;2022-10-17T13:55:58;98621.38;;;23.31;27.64
8061;BME280;4073;42.626;25.386;2022-10-17T13:58:25;98623.16;;;23.36;27.21
8061;BME280;4073;42.626;25.386;2022-10-17T14:00:52;98619.47;;;23.40;27.48
8061;BME280;4073;42.626;25.386;2022-10-17T14:03:21;98626.69;;;23.36;27.84
8061;BME280;4073;42.626;25.386;2022-10-17T14:08:32;98623.38;;;23.09;28.00
8061;BME280;4073;42.626;25.386;2022-10-17T14:10:59;98610.47;;;22.75;28.54
8061;BME280;4073;42.626;25.386;2022-10-17T14:13:26;98622.94;;;22.67;28.76
8061;BME280;4073;42.626;25.386;2022-10-17T14:15:54;98619.53;;;22.62;28.73
8061;BME280;4073;42.626;25.386;2022-10-17T14:18:25;98619.53;;;22.62;28.97
8061;BME280;4073;42.626;25.386;2022-10-17T14:20:52;98615.34;;;22.56;29.80
8061;BME280;4073;42.626;25.386;2022-10-17T14:23:37;98624.22;;;22.39;30.53
8061;BME280;4073;42.626;25.386;2022-10-17T14:28:32;98622.94;;;22.45;30.81
8061;BME280;4073;42.626;25.386;2022-10-17T14:33:45;98618.59;;;22.36;31.52
8061;BME280;4073;42.626;25.386;2022-10-17T14:36:11;98625.09;;;22.26;32.38
8061;BME280;4073;42.626;25.386;2022-10-17T14:38:37;98629.69;;;22.17;32.67
8061;BME280;4073;42.626;25.386;2022-10-17T14:41:35;98630.03;;;21.94;33.55
8061;BME280;4073;42.626;25.386;2022-10-17T14:44:06;98622.91;;;21.84;34.20
8061;BME280;4073;42.626;25.386;2022-10-17T14:46:34;98624.06;;;21.70;34.45
8061;BME280;4073;42.626;25.386;2022-10-17T14:49:07;98629.34;;;21.53;35.14
8061;BME280;4073;42.626;25.386;2022-10-17T14:51:38;98628.00;;;21.28;35.66
8061;BME280;4073;42.626;25.386;2022-10-17T14:54:18;98618.88;;;20.97;36.37
8061;BME280;4073;42.626;25.386;2022-10-17T14:56:49;98630.84;;;20.83;36.84
8061;BME280;4073;42.626;25.386;2022-10-17T14:59:15;98631.84;;;20.73;37.21
8061;BME280;4073;42.626;25.386;2022-10-17T15:01:47;98628.53;;;20.76;37.00
8061;BME280;4073;42.626;25.386;2022-10-17T15:04:13;98627.63;;;20.67;37.61
8061;BME280;4073;42.626;25.386;2022-10-17T15:06:41;98630.31;;;20.54;38.03
8061;BME280;4073;42.626;25.386;2022-10-17T15:09:09;98635.22;;;20.38;38.61
8061;BME280;4073;42.626;25.386;2022-10-17T15:11:34;98637.53;;;19.99;40.09
8061;BME280;4073;42.626;25.386;2022-10-17T15:14:00;98630.19;;;19.99;40.02
8061;BME280;4073;42.626;25.386;2022-10-17T15:16:30;98643.31;;;19.92;40.75
8061;BME280;4073;42.626;25.386;2022-10-17T15:18:56;98636.81;;;19.75;41.17
8061;BME280;4073;42.626;25.386;2022-10-17T15:21:25;98646.53;;;19.62;41.62
8061;BME280;4073;42.626;25.386;2022-10-17T15:23:51;98645.84;;;19.52;42.00